Time;durP1;ratioP1;P1;durP2;ratioP2;P2;SDS_P1;SDS_P2;PMS_P1;PMS_P2;Temp;Humidity;BMP_temperature;BMP_pressure;BME280_temperature;BME280_humidity;BME280_pressure;Samples;Min_cycle;Max_cycle;Signal;HPM_P1;HPM_P2
2021/10/07 00:02:25;;;;;;;6.13;1.02;;;11.20;99.90;;;;;;5012862;28;20029;-89
2021/10/07 00:04:51;;;;;;;2.15;0.98;;;11.20;99.90;;;;;;5012563;28;20121;-89
2021/10/07 00:07:16;;;;;;;1.85;0.80;;;11.30;99.90;;;;;;5013052;28;20121;-89
2021/10/07 00:09:42;;;;;;;2.67;0.60;;;11.20;99.90;;;;;;5013487;28;20036;-90
2021/10/07 00:12:08;;;;;;;1.95;0.70;;;11.20;99.90;;;;;;5012800;28;20022;-90
2021/10/07 00:14:34;;;;;;;1.70;0.85;;;11.20;99.90;;;;;;5012471;28;20029;-90
2021/10/07 00:17:00;;;;;;;5.80;1.30;;;11.20;99.90;;;;;;5013115;28;20026;-90
2021/10/07 00:19:26;;;;;;;3.60;1.05;;;11.30;99.90;;;;;;5013708;28;20026;-90
2021/10/07 00:21:52;;;;;;;4.45;1.25;;;11.20;99.90;;;;;;5012501;28;20172;-91
2021/10/07 00:24:18;;;;;;;3.60;1.10;;;11.30;99.90;;;;;;5012516;28;20056;-90
2021/10/07 00:26:47;;;;;;;4.97;1.10;;;11.30;99.90;;;;;;5013038;28;20032;-90
2021/10/07 00:31:47;;;;;;;2.25;0.82;;;11.30;99.90;;;;;;5013780;28;20033;-90
2021/10/07 00:34:20;;;;;;;2.33;1.00;;;11.30;99.90;;;;;;5012188;28;20437;-90
2021/10/07 00:39:21;;;;;;;2.90;1.10;;;11.40;99.90;;;;;;5014276;28;20112;-91
2021/10/07 00:41:46;;;;;;;5.50;1.05;;;11.30;99.90;;;;;;5016743;28;20109;-92
2021/10/07 00:44:12;;;;;;;2.38;0.68;;;11.40;99.90;;;;;;5018408;28;20384;-90
2021/10/07 00:46:58;;;;;;;4.13;1.00;;;11.40;99.90;;;;;;5034203;28;20029;-89
2021/10/07 00:49:25;;;;;;;5.13;1.10;;;11.60;99.90;;;;;;5032039;28;20030;-91
2021/10/07 00:51:51;;;;;;;3.38;0.70;;;11.60;99.90;;;;;;5019024;28;20026;-90
2021/10/07 00:54:21;;;;;;;1.17;0.45;;;11.70;99.90;;;;;;5016806;28;20042;-90
2021/10/07 00:56:48;;;;;;;1.73;0.70;;;11.70;99.90;;;;;;5017046;28;20022;-91
2021/10/07 00:59:14;;;;;;;5.00;0.82;;;11.70;99.90;;;;;;5016160;28;20089;-90
2021/10/07 01:01:40;;;;;;;2.83;0.68;;;11.90;99.90;;;;;;5015651;28;20127;-90
2021/10/07 01:04:06;;;;;;;4.53;0.90;;;11.90;99.90;;;;;;5016516;28;20038;-89
2021/10/07 01:06:33;;;;;;;5.30;1.30;;;11.90;99.90;;;;;;5016086;28;20482;-90
2021/10/07 01:09:03;;;;;;;1.25;0.70;;;11.90;99.90;;;;;;5016185;28;20401;-90
2021/10/07 01:11:29;;;;;;;1.45;0.70;;;11.80;99.90;;;;;;5016083;28;20073;-90
2021/10/07 01:13:55;;;;;;;2.55;0.70;;;11.80;99.90;;;;;;5015367;28;20112;-90
2021/10/07 01:16:21;;;;;;;1.88;0.60;;;11.80;99.90;;;;;;5015712;28;20026;-90
2021/10/07 01:18:47;;;;;;;4.78;0.73;;;11.80;99.90;;;;;;5015592;28;20021;-90
2021/10/07 01:21:15;;;;;;;3.67;0.75;;;11.80;99.90;;;;;;5015310;28;20430;-90
2021/10/07 01:23:42;;;;;;;1.58;0.50;;;11.90;99.90;;;;;;5015125;28;20022;-91
2021/10/07 01:26:10;;;;;;;3.03;0.77;;;11.90;99.90;;;;;;5015549;28;20363;-90
2021/10/07 01:28:43;;;;;;;3.58;0.77;;;11.90;99.90;;;;;;5015245;28;20045;-90
2021/10/07 01:31:09;;;;;;;2.08;0.65;;;11.90;99.90;;;;;;5015554;28;20409;-89
2021/10/07 01:33:35;;;;;;;2.80;0.57;;;11.90;99.90;;;;;;5015886;28;20088;-89
2021/10/07 01:36:02;;;;;;;1.30;0.70;;;11.80;99.90;;;;;;5015085;28;20026;-89
2021/10/07 01:38:28;;;;;;;1.65;0.80;;;11.90;99.90;;;;;;5015630;28;20022;-90
2021/10/07 01:40:54;;;;;;;4.07;1.20;;;11.80;99.90;;;;;;5015168;28;20371;-90
2021/10/07 01:43:20;;;;;;;2.22;0.75;;;11.80;99.90;;;;;;5015071;28;20033;-89
2021/10/07 01:45:47;;;;;;;3.30;0.65;;;11.60;99.90;;;;;;5015347;28;20022;-89
2021/10/07 01:48:14;;;;;;;2.55;0.60;;;11.70;99.90;;;;;;5015207;28;20029;-89
2021/10/07 01:50:39;;;;;;;1.42;0.80;;;11.70;99.90;;;;;;5015150;28;20144;-89
2021/10/07 01:53:05;;;;;;;2.78;0.63;;;11.60;99.90;;;;;;5014778;28;20049;-89
2021/10/07 01:55:31;;;;;;;1.63;0.55;;;11.60;99.90;;;;;;5014608;28;20050;-89
2021/10/07 01:57:57;;;;;;;4.38;0.90;;;11.60;99.90;;;;;;5014528;28;20394;-88
2021/10/07 02:00:23;;;;;;;2.35;0.77;;;11.40;99.90;;;;;;5015476;28;20033;-89
2021/10/07 02:02:48;;;;;;;2.40;0.80;;;11.20;99.90;;;;;;5014641;28;20029;-88
2021/10/07 02:05:14;;;;;;;3.58;1.02;;;11.10;99.90;;;;;;5014314;28;20025;-89
2021/10/07 02:07:40;;;;;;;2.58;1.13;;;11.10;99.90;;;;;;5014373;28;20466;-90
2021/10/07 02:10:17;;;;;;;2.30;0.93;;;11.10;99.90;;;;;;5014015;28;20030;-89
2021/10/07 02:12:45;;;;;;;3.30;1.00;;;11.10;99.90;;;;;;5014834;28;20033;-88
2021/10/07 02:15:11;;;;;;;3.97;0.90;;;11.10;99.90;;;;;;5013870;28;20056;-89
2021/10/07 02:17:38;;;;;;;2.13;0.70;;;11.00;99.90;;;;;;5014522;28;20022;-88
2021/10/07 02:20:07;;;;;;;2.35;0.85;;;11.00;99.90;;;;;;5014255;28;20025;-88
2021/10/07 02:22:33;;;;;;;3.75;0.80;;;11.00;99.90;;;;;;5013776;28;20022;-88
2021/10/07 02:24:58;;;;;;;1.52;0.60;;;10.90;99.90;;;;;;5015049;28;20412;-88
2021/10/07 02:27:24;;;;;;;2.40;0.85;;;11.00;99.90;;;;;;5014021;28;20026;-89
2021/10/07 02:29:50;;;;;;;1.67;0.60;;;11.20;99.90;;;;;;5014099;28;20026;-88
2021/10/07 02:32:15;;;;;;;4.43;1.00;;;11.30;99.90;;;;;;5014369;28;20064;-88
2021/10/07 02:34:41;;;;;;;4.13;0.70;;;11.50;99.90;;;;;;5013348;28;20021;-88
2021/10/07 02:37:07;;;;;;;2.95;0.75;;;11.50;99.90;;;;;;5013507;28;20025;-88
2021/10/07 02:39:33;;;;;;;3.03;0.75;;;11.50;99.90;;;;;;5013539;28;20022;-87
2021/10/07 02:41:58;;;;;;;2.35;0.65;;;11.60;99.90;;;;;;5013668;28;20022;-89
2021/10/07 02:44:24;;;;;;;4.25;0.70;;;11.50;99.90;;;;;;5013775;28;20037;-88
2021/10/07 02:46:50;;;;;;;2.67;0.90;;;11.10;99.90;;;;;;5013851;28;20022;-89
2021/10/07 02:49:16;;;;;;;7.95;1.75;;;10.90;99.90;;;;;;5017934;28;20089;-88
2021/10/07 02:51:41;;;;;;;3.17;1.15;;;10.90;99.90;;;;;;5013690;28;20026;-89
2021/10/07 02:54:07;;;;;;;4.47;1.30;;;10.90;99.90;;;;;;5013444;28;20052;-89
2021/10/07 02:56:33;;;;;;;5.45;1.00;;;11.00;99.90;;;;;;5014044;28;20081;-89
2021/10/07 02:58:59;;;;;;;3.30;0.80;;;11.10;99.90;;;;;;5029049;28;20032;-90
2021/10/07 03:01:26;;;;;;;3.58;1.08;;;11.20;99.90;;;;;;5033710;28;20485;-88
2021/10/07 03:03:52;;;;;;;4.75;0.80;;;11.20;99.90;;;;;;5018751;28;20029;-89
2021/10/07 03:06:18;;;;;;;1.55;0.77;;;11.10;99.90;;;;;;5015684;28;20481;-90
2021/10/07 03:08:44;;;;;;;3.63;0.70;;;11.20;99.90;;;;;;5013880;28;20026;-89
2021/10/07 03:11:09;;;;;;;2.75;0.85;;;11.10;99.90;;;;;;5013196;28;20033;-88
2021/10/07 03:13:35;;;;;;;4.78;0.85;;;11.10;99.90;;;;;;5013050;28;20116;-89
2021/10/07 03:16:01;;;;;;;3.47;0.85;;;11.00;99.90;;;;;;5013286;28;20035;-89
2021/10/07 03:18:27;;;;;;;4.60;0.85;;;11.00;99.90;;;;;;5013455;28;20370;-89
2021/10/07 03:20:52;;;;;;;7.07;0.93;;;11.10;99.90;;;;;;5013999;28;20406;-90
2021/10/07 03:23:18;;;;;;;2.28;0.70;;;11.20;99.90;;;;;;5014222;28;20026;-89
2021/10/07 03:25:44;;;;;;;5.65;0.80;;;11.30;99.90;;;;;;5013484;28;20371;-89
2021/10/07 03:28:10;;;;;;;2.88;0.77;;;11.40;99.90;;;;;;5013089;28;20026;-90
2021/10/07 03:30:36;;;;;;;1.65;0.70;;;11.50;99.90;;;;;;5013267;28;20378;-89
2021/10/07 03:33:09;;;;;;;5.50;0.77;;;11.30;99.90;;;;;;5014590;28;20440;-90
2021/10/07 03:35:36;;;;;;;4.28;0.80;;;11.20;99.90;;;;;;5013891;28;20026;-90
2021/10/07 03:38:03;;;;;;;2.28;0.82;;;11.10;99.90;;;;;;5013099;28;20057;-89
2021/10/07 03:40:29;;;;;;;5.88;0.75;;;11.10;99.90;;;;;;5013051;28;20022;-89
2021/10/07 03:42:56;;;;;;;4.50;0.60;;;11.10;99.90;;;;;;5012680;28;20025;-89
2021/10/07 03:45:22;;;;;;;2.03;0.82;;;11.00;99.90;;;;;;5012742;28;20026;-89
2021/10/07 03:47:48;;;;;;;2.85;0.90;;;10.90;99.90;;;;;;5012769;28;20374;-89
2021/10/07 03:50:14;;;;;;;4.40;0.90;;;10.80;99.90;;;;;;5013441;28;20029;-89
2021/10/07 03:52:39;;;;;;;3.83;0.75;;;10.80;99.90;;;;;;5013156;28;20088;-89
2021/10/07 03:55:05;;;;;;;1.15;0.57;;;10.90;99.90;;;;;;5012475;28;20049;-89
2021/10/07 03:57:31;;;;;;;1.80;0.52;;;11.20;99.90;;;;;;5013091;28;20385;-89
2021/10/07 03:59:57;;;;;;;2.45;0.75;;;11.40;99.90;;;;;;5012676;28;20032;-89
2021/10/07 04:02:23;;;;;;;2.00;0.70;;;11.40;99.90;;;;;;5013075;28;20026;-89
2021/10/07 04:04:49;;;;;;;1.95;0.77;;;11.30;99.90;;;;;;5013201;28;20500;-89
2021/10/07 04:07:14;;;;;;;1.65;0.60;;;11.50;99.90;;;;;;5012644;28;20037;-89
2021/10/07 04:09:40;;;;;;;2.83;0.82;;;11.60;99.90;;;;;;5012592;28;20029;-89
2021/10/07 04:12:07;;;;;;;1.88;0.60;;;11.60;99.90;;;;;;5012499;28;20081;-89
2021/10/07 04:14:33;;;;;;;2.13;0.60;;;11.60;99.90;;;;;;5013189;28;20052;-88
2021/10/07 04:16:58;;;;;;;3.03;1.10;;;11.60;99.90;;;;;;5016355;28;20050;-88
2021/10/07 04:19:24;;;;;;;2.47;0.70;;;11.60;99.90;;;;;;5018112;28;20450;-90
2021/10/07 04:21:50;;;;;;;4.85;1.30;;;11.60;99.90;;;;;;5017332;28;20022;-89
2021/10/07 04:24:17;;;;;;;3.67;1.30;;;11.60;99.90;;;;;;5016668;28;20033;-89
2021/10/07 04:26:42;;;;;;;6.05;1.95;;;11.50;99.90;;;;;;5016992;28;20079;-90
2021/10/07 04:29:08;;;;;;;5.18;1.40;;;11.60;99.90;;;;;;5016139;28;20125;-89
2021/10/07 04:31:34;;;;;;;2.75;1.10;;;11.40;99.90;;;;;;5017273;28;20037;-89
2021/10/07 04:34:00;;;;;;;4.30;0.82;;;11.20;99.90;;;;;;5016014;28;20393;-89
2021/10/07 04:36:25;;;;;;;1.85;1.05;;;10.90;99.90;;;;;;5016574;28;20025;-90
2021/10/07 04:38:51;;;;;;;2.38;1.65;;;10.90;99.90;;;;;;5016222;28;20018;-90
2021/10/07 04:41:17;;;;;;;2.38;1.00;;;11.10;99.90;;;;;;5016903;28;20022;-90
2021/10/07 04:43:43;;;;;;;4.22;1.38;;;11.20;99.90;;;;;;5015940;28;20061;-90
2021/10/07 04:46:08;;;;;;;4.47;1.33;;;11.30;99.90;;;;;;5016069;28;20084;-89
2021/10/07 04:48:35;;;;;;;2.97;2.05;;;11.30;99.90;;;;;;5016059;28;20516;-90
2021/10/07 04:51:01;;;;;;;3.08;0.90;;;11.20;99.90;;;;;;5016166;28;20026;-90
2021/10/07 04:53:27;;;;;;;2.85;1.00;;;11.30;99.90;;;;;;5018243;28;20053;-90
2021/10/07 04:55:55;;;;;;;3.15;0.90;;;11.30;99.90;;;;;;5020015;28;20477;-90
2021/10/07 04:58:22;;;;;;;3.92;1.13;;;11.30;99.90;;;;;;5019309;28;20024;-89
2021/10/07 05:00:49;;;;;;;2.97;0.75;;;11.20;99.90;;;;;;5019315;28;20535;-90
2021/10/07 05:03:15;;;;;;;4.30;0.90;;;10.90;99.90;;;;;;5019278;28;20024;-89
2021/10/07 05:05:42;;;;;;;3.80;1.10;;;10.90;99.90;;;;;;5019387;28;20493;-90
2021/10/07 05:08:09;;;;;;;7.93;3.63;;;10.80;99.90;;;;;;5029033;28;20029;-90
2021/10/07 05:10:35;;;;;;;7.85;2.88;;;10.90;99.90;;;;;;5039854;28;20032;-89
2021/10/07 05:13:01;;;;;;;4.22;1.83;;;10.80;99.90;;;;;;5032193;28;20436;-90
2021/10/07 05:15:26;;;;;;;5.68;1.77;;;10.90;99.90;;;;;;5039329;28;20029;-89
2021/10/07 05:17:52;;;;;;;4.00;1.52;;;10.90;99.90;;;;;;5020321;28;20026;-90
2021/10/07 05:20:18;;;;;;;2.20;1.23;;;11.00;99.90;;;;;;5019439;28;20057;-90
2021/10/07 05:22:44;;;;;;;6.13;1.60;;;11.10;99.90;;;;;;5019481;28;20063;-90
2021/10/07 05:25:11;;;;;;;4.32;1.30;;;11.10;99.90;;;;;;5018525;28;20095;-89
2021/10/07 05:27:36;;;;;;;2.53;1.20;;;11.00;99.90;;;;;;5018286;28;20030;-89
2021/10/07 05:30:04;;;;;;;3.22;1.55;;;11.00;99.90;;;;;;5018748;28;20546;-90
2021/10/07 05:32:31;;;;;;;3.85;1.70;;;10.90;99.90;;;;;;5018553;28;20493;-90
2021/10/07 05:34:57;;;;;;;4.90;1.90;;;10.90;99.90;;;;;;5018443;28;20066;-90
2021/10/07 05:37:23;;;;;;;6.05;1.65;;;10.90;99.90;;;;;;5018978;28;20490;-89
2021/10/07 05:39:49;;;;;;;3.20;1.73;;;10.80;99.90;;;;;;5018263;28;20532;-89
2021/10/07 05:42:15;;;;;;;3.58;1.65;;;10.90;99.90;;;;;;5018110;28;20026;-89
2021/10/07 05:44:40;;;;;;;4.30;1.80;;;10.90;99.90;;;;;;5018181;28;20025;-89
2021/10/07 05:47:06;;;;;;;4.40;1.58;;;10.80;99.90;;;;;;5018128;28;20052;-90
2021/10/07 05:49:32;;;;;;;3.53;1.50;;;10.80;99.90;;;;;;5019008;28;20029;-90
2021/10/07 05:51:58;;;;;;;1.95;1.13;;;10.80;99.90;;;;;;5019070;28;20056;-89
2021/10/07 05:54:24;;;;;;;7.07;1.35;;;10.80;99.90;;;;;;5020756;28;20041;-89
2021/10/07 05:56:50;;;;;;;5.28;1.90;;;10.70;99.90;;;;;;5020444;28;20049;-89
2021/10/07 05:59:16;;;;;;;4.20;1.30;;;10.80;99.90;;;;;;5019156;28;20378;-89
2021/10/07 06:01:42;;;;;;;4.78;1.35;;;10.70;99.90;;;;;;5019326;28;20037;-88
2021/10/07 06:04:08;;;;;;;4.07;1.30;;;10.70;99.90;;;;;;5018709;28;20036;-91
2021/10/07 06:06:34;;;;;;;3.58;1.67;;;10.80;99.90;;;;;;5020108;28;20479;-91
2021/10/07 06:09:00;;;;;;;4.43;1.30;;;10.80;99.90;;;;;;5019382;28;20029;-91
2021/10/07 06:11:26;;;;;;;5.45;1.67;;;11.00;99.90;;;;;;5019873;28;20037;-91
2021/10/07 06:13:53;;;;;;;4.93;1.52;;;11.30;99.90;;;;;;5018685;28;20029;-92
2021/10/07 06:16:19;;;;;;;3.05;1.13;;;11.40;99.90;;;;;;5018591;28;20032;-90
2021/10/07 06:18:47;;;;;;;1.50;0.90;;;11.20;99.90;;;;;;5019065;28;20362;-90
2021/10/07 06:21:13;;;;;;;4.18;1.23;;;11.20;99.90;;;;;;5019036;28;20432;-91
2021/10/07 06:23:41;;;;;;;3.30;0.90;;;11.10;99.90;;;;;;5018662;28;20025;-90
2021/10/07 06:26:08;;;;;;;2.72;1.05;;;11.00;99.90;;;;;;5018170;28;20036;-91
2021/10/07 06:28:34;;;;;;;3.60;1.27;;;10.90;99.90;;;;;;5018385;28;20025;-91
2021/10/07 06:31:00;;;;;;;3.78;0.90;;;11.00;99.90;;;;;;5018325;28;20164;-91
2021/10/07 06:33:26;;;;;;;3.13;1.10;;;11.00;99.90;;;;;;5018733;28;20469;-91
2021/10/07 06:35:52;;;;;;;7.13;1.10;;;11.00;99.90;;;;;;5018900;28;20041;-91
2021/10/07 06:38:19;;;;;;;3.92;1.00;;;11.20;99.90;;;;;;5016871;28;20095;-91
2021/10/07 06:40:45;;;;;;;3.45;0.85;;;11.30;99.90;;;;;;5018019;28;20025;-91
2021/10/07 06:43:11;;;;;;;1.60;0.75;;;11.20;99.90;;;;;;5018084;28;20025;-91
2021/10/07 06:45:37;;;;;;;5.50;1.27;;;11.20;99.90;;;;;;5017609;28;20064;-91
2021/10/07 06:48:03;;;;;;;4.57;1.20;;;11.30;99.90;;;;;;5017926;28;20022;-92
2021/10/07 06:50:29;;;;;;;2.67;1.20;;;11.30;99.90;;;;;;5017743;28;20071;-91
2021/10/07 06:52:56;;;;;;;2.67;1.20;;;11.30;99.90;;;;;;5017890;28;20022;-91
2021/10/07 06:55:22;;;;;;;3.53;1.33;;;11.20;99.90;;;;;;5013932;28;20077;-91
2021/10/07 06:57:48;;;;;;;1.30;0.88;;;11.40;99.90;;;;;;5014214;28;20076;-91
2021/10/07 07:00:14;;;;;;;3.58;0.90;;;11.40;99.90;;;;;;5014041;28;20026;-90
2021/10/07 07:02:41;;;;;;;3.78;1.13;;;11.30;99.90;;;;;;5014019;28;20058;-90
2021/10/07 07:05:08;;;;;;;3.90;1.08;;;11.20;99.90;;;;;;4998222;28;20421;-90
2021/10/07 07:07:34;;;;;;;2.30;1.10;;;11.20;99.90;;;;;;5015054;28;20029;-91
2021/10/07 07:10:00;;;;;;;2.92;1.02;;;11.30;99.90;;;;;;5016714;28;20498;-91
2021/10/07 07:12:26;;;;;;;4.38;1.42;;;11.30;99.90;;;;;;5024169;28;20022;-90
2021/10/07 07:14:53;;;;;;;4.50;1.00;;;11.40;99.90;;;;;;5036164;28;20037;-91
2021/10/07 07:17:18;;;;;;;6.10;1.38;;;11.50;99.90;;;;;;5024206;28;20085;-90
2021/10/07 07:19:44;;;;;;;5.63;1.20;;;11.40;99.90;;;;;;5015943;28;20065;-90
2021/10/07 07:22:12;;;;;;;4.10;1.30;;;11.60;99.90;;;;;;5014897;28;20034;-91
2021/10/07 07:24:37;;;;;;;3.10;1.10;;;11.60;99.90;;;;;;5014027;28;20029;-91
2021/10/07 07:27:03;;;;;;;2.17;1.20;;;11.70;99.90;;;;;;5013942;28;20389;-91
2021/10/07 07:29:29;;;;;;;3.63;1.10;;;11.90;99.90;;;;;;5013575;28;20026;-90
2021/10/07 07:31:55;;;;;;;3.92;1.00;;;12.10;99.90;;;;;;5014438;28;20466;-91
2021/10/07 07:34:20;;;;;;;3.28;1.30;;;12.00;99.90;;;;;;5014012;28;20052;-91
2021/10/07 07:36:46;;;;;;;4.55;1.17;;;12.00;99.90;;;;;;5013293;28;20029;-90
2021/10/07 07:39:12;;;;;;;4.20;1.25;;;12.10;99.90;;;;;;5013386;28;20029;-90
2021/10/07 07:41:38;;;;;;;2.78;1.35;;;12.20;99.90;;;;;;5013842;28;20425;-91
2021/10/07 07:44:05;;;;;;;4.00;1.50;;;12.30;99.90;;;;;;5014513;28;20026;-91
2021/10/07 07:46:32;;;;;;;4.35;1.23;;;12.40;99.90;;;;;;5013335;28;20033;-91
2021/10/07 07:49:00;;;;;;;5.72;1.55;;;12.40;99.90;;;;;;5014212;28;20053;-91
2021/10/07 07:51:27;;;;;;;4.38;1.55;;;12.50;99.90;;;;;;5014242;28;20037;-91
2021/10/07 07:53:52;;;;;;;4.32;1.15;;;12.60;99.90;;;;;;5014157;28;20501;-88
2021/10/07 07:56:19;;;;;;;6.47;1.75;;;12.40;99.90;;;;;;5013436;28;20041;-91
2021/10/07 07:58:45;;;;;;;3.33;1.50;;;12.20;99.90;;;;;;5013117;28;20489;-90
2021/10/07 08:01:11;;;;;;;4.55;1.60;;;12.20;99.90;;;;;;5014096;28;20481;-91
2021/10/07 08:03:37;;;;;;;3.47;1.50;;;12.20;99.90;;;;;;5014709;28;20025;-92
2021/10/07 08:06:04;;;;;;;14.88;2.40;;;12.20;99.90;;;;;;5014143;28;20033;-92
2021/10/07 08:08:30;;;;;;;6.80;2.30;;;12.20;99.90;;;;;;5013231;28;20018;-91
2021/10/07 08:10:56;;;;;;;4.07;1.98;;;12.20;99.90;;;;;;5013422;28;20049;-92
2021/10/07 08:13:22;;;;;;;5.25;1.83;;;12.30;99.90;;;;;;5013256;28;20022;-91
2021/10/07 08:15:50;;;;;;;6.90;1.38;;;12.40;99.90;;;;;;5013162;28;20540;-93
2021/10/07 08:18:16;;;;;;;7.40;2.13;;;12.50;99.90;;;;;;5013508;28;20018;-91
2021/10/07 08:20:42;;;;;;;3.55;1.52;;;12.60;99.90;;;;;;5014685;28;20531;-92
2021/10/07 08:23:11;;;;;;;3.20;1.70;;;12.60;99.90;;;;;;5013149;28;20092;-93
2021/10/07 08:25:37;;;;;;;5.65;1.60;;;12.50;99.90;;;;;;5014938;28;20478;-91
2021/10/07 08:28:03;;;;;;;4.35;1.80;;;12.50;99.90;;;;;;5014174;28;20026;-92
2021/10/07 08:30:29;;;;;;;5.43;2.30;;;12.50;99.90;;;;;;5013970;28;20028;-92
2021/10/07 08:32:55;;;;;;;4.10;1.88;;;12.60;99.90;;;;;;5012873;28;20482;-92
2021/10/07 08:35:20;;;;;;;4.57;1.60;;;12.70;99.90;;;;;;5013184;28;20077;-93
2021/10/07 08:37:47;;;;;;;8.93;1.70;;;12.70;99.90;;;;;;5012730;28;20022;-92
2021/10/07 08:40:15;;;;;;;5.25;1.88;;;12.90;99.90;;;;;;5013050;28;20470;-92
2021/10/07 08:42:41;;;;;;;3.22;1.88;;;12.90;99.90;;;;;;5013977;28;20351;-92
2021/10/07 08:45:09;;;;;;;4.43;1.77;;;12.90;99.90;;;;;;5013079;28;20037;-92
2021/10/07 08:47:40;;;;;;;5.97;1.85;;;12.90;99.90;;;;;;5013804;28;20484;-91
2021/10/07 08:50:08;;;;;;;4.53;1.80;;;13.00;99.90;;;;;;5013669;28;20396;-91
2021/10/07 08:52:34;;;;;;;5.35;2.28;;;13.00;99.90;;;;;;5015481;28;20022;-91
2021/10/07 08:55:00;;;;;;;3.22;1.88;;;13.10;99.90;;;;;;5013480;28;20053;-92
2021/10/07 08:57:26;;;;;;;5.40;1.95;;;13.60;99.90;;;;;;5013016;28;20398;-91
2021/10/07 08:59:52;;;;;;;5.03;1.70;;;13.50;99.90;;;;;;5012866;28;20018;-92
2021/10/07 09:02:29;;;;;;;5.57;2.05;;;13.30;99.90;;;;;;5014817;28;20014;-91
2021/10/07 09:05:12;;;;;;;7.03;2.25;;;13.60;99.90;;;;;;5016372;28;20026;-91
2021/10/07 09:08:04;;;;;;;7.60;2.50;;;13.80;99.90;;;;;;5016781;28;20034;-92
2021/10/07 09:10:37;;;;;;;4.50;2.33;;;13.70;99.90;;;;;;5018721;28;20026;-93
2021/10/07 09:13:30;;;;;;;2.15;1.52;;;13.70;99.90;;;;;;5021015;28;20087;-91
2021/10/07 09:15:58;;;;;;;5.80;2.28;;;13.90;99.90;;;;;;5024683;28;20045;-91
2021/10/07 09:18:25;;;;;;;6.47;3.22;;;14.20;99.90;;;;;;5037845;28;20034;-92
2021/10/07 09:20:53;;;;;;;5.45;1.90;;;14.20;99.90;;;;;;5024985;28;20034;-91
2021/10/07 09:23:20;;;;;;;5.47;2.53;;;14.30;99.90;;;;;;5018077;28;20025;-91
2021/10/07 09:26:12;;;;;;;7.18;2.50;;;14.40;99.90;;;;;;5016669;28;20072;-92
2021/10/07 09:28:51;;;;;;;4.68;2.38;;;14.30;99.90;;;;;;5016217;28;20029;-91
2021/10/07 09:31:32;;;;;;;3.38;2.20;;;14.30;99.90;;;;;;5016107;28;20540;-91
2021/10/07 09:34:05;;;;;;;5.78;2.20;;;14.20;99.90;;;;;;5015592;28;20038;-93
2021/10/07 09:36:32;;;;;;;7.85;2.03;;;14.30;99.90;;;;;;5015621;28;20023;-91
2021/10/07 09:38:59;;;;;;;6.30;2.30;;;14.40;99.90;;;;;;5016102;28;20469;-94
2021/10/07 09:41:29;;;;;;;3.05;2.00;;;14.50;99.90;;;;;;5015595;28;20018;-92
2021/10/07 09:43:59;;;;;;;7.57;2.60;;;14.40;99.90;;;;;;5015630;28;20026;-92
2021/10/07 09:46:40;;;;;;;4.38;2.15;;;14.30;99.90;;;;;;5016416;28;20026;-90
2021/10/07 09:49:14;;;;;;;5.65;2.45;;;14.20;99.90;;;;;;5015705;28;20030;-92
2021/10/07 09:51:45;;;;;;;9.98;2.42;;;14.20;99.90;;;;;;5016911;28;20026;-92
2021/10/07 09:54:16;;;;;;;6.22;2.10;;;14.10;99.90;;;;;;5015179;28;20065;-91
2021/10/07 09:56:57;;;;;;;6.25;2.33;;;14.30;99.90;;;;;;5016607;28;20026;-91
2021/10/07 09:59:24;;;;;;;4.60;2.20;;;14.10;99.90;;;;;;5016763;28;20018;-92
2021/10/07 10:01:55;;;;;;;4.53;1.85;;;14.30;99.90;;;;;;5016450;28;20025;-92
2021/10/07 10:04:22;;;;;;;5.68;2.20;;;14.40;99.90;;;;;;5015266;28;20026;-92
2021/10/07 10:06:48;;;;;;;7.68;2.10;;;14.40;99.90;;;;;;5015036;28;20029;-91
2021/10/07 10:09:14;;;;;;;4.40;1.80;;;14.30;99.90;;;;;;5015237;28;20401;-92
2021/10/07 10:11:43;;;;;;;4.82;1.90;;;14.30;99.90;;;;;;5015045;28;20116;-92
2021/10/07 10:14:09;;;;;;;4.15;2.08;;;14.30;99.90;;;;;;5015374;28;20026;-91
2021/10/07 10:16:38;;;;;;;4.15;1.98;;;14.50;99.90;;;;;;5014935;28;20050;-92
2021/10/07 10:19:07;;;;;;;7.45;1.88;;;14.70;99.90;;;;;;5015147;28;20110;-92
2021/10/07 10:21:39;;;;;;;6.53;1.65;;;14.50;99.90;;;;;;5015192;28;20018;-92
2021/10/07 10:24:11;;;;;;;5.03;2.08;;;14.30;99.90;;;;;;5015043;28;20433;-91
2021/10/07 10:26:38;;;;;;;6.65;2.50;;;14.20;99.90;;;;;;5014949;28;20026;-93
2021/10/07 10:29:21;;;;;;;3.25;2.00;;;14.00;99.90;;;;;;5014650;28;20054;-92
2021/10/07 10:31:50;;;;;;;4.25;2.20;;;13.90;99.90;;;;;;5014551;28;20441;-91
2021/10/07 10:34:18;;;;;;;4.03;2.03;;;13.80;99.90;;;;;;5014486;28;20060;-92
2021/10/07 10:36:56;;;;;;;6.60;2.40;;;13.70;99.90;;;;;;5014662;28;20057;-92
2021/10/07 10:39:28;;;;;;;5.00;2.00;;;13.80;99.90;;;;;;5014557;28;20029;-92
2021/10/07 10:42:03;;;;;;;6.90;2.70;;;13.80;99.90;;;;;;5014531;28;20050;-92
2021/10/07 10:44:51;;;;;;;8.70;2.95;;;13.80;99.90;;;;;;5014822;28;20036;-91
2021/10/07 10:47:28;;;;;;;5.30;2.97;;;13.70;99.90;;;;;;5001680;28;20034;-91
2021/10/07 10:49:56;;;;;;;8.45;2.75;;;13.60;99.90;;;;;;5014217;28;20489;-94
2021/10/07 10:52:32;;;;;;;10.93;3.20;;;13.50;99.90;;;;;;5014252;28;20026;-92
2021/10/07 10:55:10;;;;;;;7.65;2.85;;;13.50;99.90;;;;;;5014678;28;20486;-92
2021/10/07 10:57:52;;;;;;;5.47;3.08;;;13.60;99.90;;;;;;5014090;28;20026;-89
2021/10/07 11:00:42;;;;;;;9.57;4.30;;;13.50;99.90;;;;;;5014039;28;20053;-91
2021/10/07 11:03:08;;;;;;;8.60;3.53;;;13.50;99.90;;;;;;5014031;28;20442;-91
2021/10/07 11:05:41;;;;;;;8.00;2.65;;;13.40;99.90;;;;;;5018085;28;20061;-92
2021/10/07 11:08:13;;;;;;;5.93;2.85;;;13.30;99.90;;;;;;5016313;28;20477;-96
2021/10/07 11:10:41;;;;;;;7.20;3.28;;;13.40;99.90;;;;;;5014474;28;20549;-92
2021/10/07 11:13:20;;;;;;;7.20;2.38;;;13.40;99.90;;;;;;5013689;28;20036;-92
2021/10/07 11:15:49;;;;;;;5.43;2.33;;;13.30;99.90;;;;;;5013795;28;20032;-92
2021/10/07 11:18:15;;;;;;;7.25;2.35;;;13.30;99.90;;;;;;5015575;28;20026;-92
2021/10/07 11:20:40;;;;;;;7.15;2.63;;;13.30;99.90;;;;;;5017282;28;20026;-91
2021/10/07 11:23:16;;;;;;;5.53;2.58;;;13.20;99.90;;;;;;5022866;28;20036;-92
2021/10/07 11:25:50;;;;;;;4.70;2.83;;;13.30;99.90;;;;;;5034929;28;20108;-91
2021/10/07 11:28:25;;;;;;;4.45;2.47;;;13.40;99.90;;;;;;5026719;28;20034;-91
2021/10/07 11:30:50;;;;;;;7.47;2.33;;;13.60;99.90;;;;;;5014934;28;20492;-91
2021/10/07 11:33:16;;;;;;;5.53;2.55;;;13.70;99.90;;;;;;5014236;28;20025;-92
2021/10/07 11:35:42;;;;;;;4.82;2.20;;;13.70;99.90;;;;;;5014687;28;20457;-93
2021/10/07 11:38:11;;;;;;;5.85;2.22;;;13.70;99.90;;;;;;5013699;28;20029;-91
2021/10/07 11:40:42;;;;;;;6.47;2.17;;;13.80;99.90;;;;;;5013764;28;20045;-92
2021/10/07 11:43:15;;;;;;;4.05;2.10;;;14.00;99.90;;;;;;5013636;28;20037;-92
2021/10/07 11:45:46;;;;;;;4.53;2.10;;;13.80;99.90;;;;;;5013965;28;20481;-91
2021/10/07 11:48:13;;;;;;;5.40;1.92;;;14.00;99.90;;;;;;5013554;28;20030;-91
2021/10/07 11:50:50;;;;;;;4.72;1.83;;;14.00;99.90;;;;;;5013369;28;20033;-91
2021/10/07 11:53:27;;;;;;;7.05;2.38;;;14.00;99.90;;;;;;5014222;28;20504;-91
2021/10/07 11:55:53;;;;;;;4.85;2.20;;;14.10;99.90;;;;;;5016550;28;20029;-91
2021/10/07 11:58:19;;;;;;;4.75;2.60;;;14.00;99.90;;;;;;5017012;28;20167;-91
2021/10/07 12:00:46;;;;;;;6.85;2.40;;;13.90;99.90;;;;;;5016601;28;20017;-90
2021/10/07 12:03:20;;;;;;;7.20;2.00;;;13.90;99.90;;;;;;5016439;28;20033;-91
2021/10/07 12:05:50;;;;;;;5.03;1.98;;;14.10;99.90;;;;;;5016452;28;20478;-90
2021/10/07 12:08:17;;;;;;;4.13;2.10;;;14.30;99.90;;;;;;5033916;28;20030;-91
2021/10/07 12:11:05;;;;;;;4.63;2.33;;;14.30;99.90;;;;;;5016276;28;20025;-91
2021/10/07 12:13:43;;;;;;;4.10;2.60;;;14.60;99.90;;;;;;5034157;28;20033;-91
2021/10/07 12:16:17;;;;;;;6.35;2.38;;;14.50;99.90;;;;;;5016367;28;20036;-92
2021/10/07 12:18:54;;;;;;;4.20;2.15;;;14.80;99.90;;;;;;5016223;28;20095;-90
2021/10/07 12:21:24;;;;;;;5.30;2.03;;;14.80;99.90;;;;;;5017328;28;20025;-90
2021/10/07 12:23:55;;;;;;;6.00;1.90;;;15.00;99.90;;;;;;5016342;28;20029;-90
2021/10/07 12:26:31;;;;;;;3.53;1.80;;;14.80;99.90;;;;;;5016277;28;20036;-91
2021/10/07 12:28:58;;;;;;;3.85;2.45;;;14.70;99.90;;;;;;5016336;28;20022;-92
2021/10/07 12:31:27;;;;;;;5.38;2.08;;;14.70;99.90;;;;;;5016118;28;20017;-92
2021/10/07 12:33:59;;;;;;;4.25;1.83;;;14.80;99.90;;;;;;5016165;28;20021;-91
2021/10/07 12:36:43;;;;;;;5.95;1.83;;;14.50;99.90;;;;;;5017016;28;20504;-91
2021/10/07 12:39:29;;;;;;;4.28;2.47;;;14.60;99.90;;;;;;5019915;28;20041;-91
2021/10/07 12:41:57;;;;;;;4.32;2.03;;;14.50;99.90;;;;;;5019738;28;20029;-91
2021/10/07 12:44:29;;;;;;;3.13;1.92;;;14.50;99.90;;;;;;5037437;28;20033;-91
2021/10/07 12:46:58;;;;;;;4.18;2.10;;;14.40;99.90;;;;;;5019771;28;20026;-91
2021/10/07 12:49:46;;;;;;;4.07;1.88;;;14.30;99.90;;;;;;5037415;28;20025;-91
2021/10/07 12:52:28;;;;;;;3.55;2.33;;;14.20;99.90;;;;;;5019878;28;20032;-91
2021/10/07 12:54:59;;;;;;;3.72;2.30;;;14.20;99.90;;;;;;5036984;28;20084;-91
2021/10/07 12:57:45;;;;;;;5.20;2.70;;;14.20;99.90;;;;;;5019697;28;20021;-91
2021/10/07 13:00:35;;;;;;;5.22;2.60;;;14.10;99.90;;;;;;5019609;28;20548;-91